Saint-Raymond, Canada
Current Conditions -  °F | °C
As of 3:51 PM on Saturday 20 Dec 2014 (Local Time) from CYOY Reporting Station
Overcast Overcast  
Wind Chill: 11°   Ceiling: 1300
Heat Index: 18°   Visibility: 6mi
Dew Point: 14°   Wind: 5mph
Humidity: 86%   Direction: 110°ESE
Pressure: 30.32"   Gusts: NA
Location:  46.88°N, 71.83°W
Report Text: CYOY 202051Z AUTO 11004KT 080V170 6SM OVC013 M08/M10 A3032
Loading
Personal Weather Stations






























Interactive Weather Map New forecast layout! Learn more

10-Day Weather Forecast

Advertisements
Track Severe Weather on mobile